Edgewood, Kentucky
Current Conditions -  °F | °C
As of 12:52 AM on Wednesday 26 Nov 2014 (Local Time) from KCVG Reporting Station
Overcast Overcast  
Wind Chill: 24°   Ceiling: 19000
Heat Index: 30°   Visibility: 7mi
Dew Point: 24°   Wind: 6mph
Humidity: 79%   Direction: 340°NNW
Pressure: 30.15"   Gusts: NA
Location:  39.017°N, 84.607°W
Report Text: KCVG 260552Z 34005KT 7SM SCT160 OVC190 M01/M04 A3015 RMK AO2 SLP213 T10111044 10028 21011 58010
Loading
Personal Weather Stations






























Interactive Weather Map New forecast layout! Learn more

10-Day Weather Forecast

Advertisements
Track Severe Weather on mobile